Terminal Aerodrome Forecast
Issued by NWS

Home | Current Version | Previous Version | Text Only | Print | Product List | Glossary On
Versions: 1 2 3 4 5 6 7 8 9 10 11 12 13
000
FTPA31 PHFO 242346
TAFHJR
TAF
PHJR 242346Z 2500/2524 11011G17KT P6SM SCT030
     FM250400 VRB03KT P6SM FEW030
     FM252000 09011G17KT P6SM FEW030 FEW045=

USA.gov is the U.S. government's official web portal to all federal, state and local government web resources and services.